createdAt,value
2022-12-17T00:01:56.695Z,66.70
2022-12-17T00:04:17.097Z,66.60
2022-12-17T00:06:37.917Z,66.80
2022-12-17T00:08:58.525Z,66.80
2022-12-17T00:11:19.065Z,66.80
2022-12-17T00:13:41.578Z,66.70
2022-12-17T00:16:09.864Z,66.50
2022-12-17T00:18:30.291Z,66.40
2022-12-17T00:20:53.208Z,66.40
2022-12-17T00:23:18.128Z,66.40
2022-12-17T00:25:38.437Z,66.60
2022-12-17T00:27:58.993Z,66.50
2022-12-17T00:30:19.248Z,66.60
2022-12-17T00:32:40.990Z,66.70
2022-12-17T00:35:01.645Z,66.60
2022-12-17T00:37:22.010Z,66.40
2022-12-17T00:39:42.551Z,66.40
2022-12-17T00:42:02.857Z,66.30
2022-12-17T00:44:23.334Z,66.70
2022-12-17T00:46:43.689Z,66.80
2022-12-17T00:49:05.705Z,67.10
2022-12-17T00:51:25.919Z,66.90
2022-12-17T00:53:46.195Z,66.90
2022-12-17T00:56:06.758Z,67.30
2022-12-17T00:58:27.177Z,67.20
2022-12-17T01:00:47.978Z,67.00
2022-12-17T01:03:08.645Z,67.30
2022-12-17T01:05:31.064Z,67.00
2022-12-17T01:07:52.639Z,67.40
2022-12-17T01:10:13.155Z,67.00
2022-12-17T01:12:33.536Z,66.90
2022-12-17T01:14:54.908Z,66.70
2022-12-17T01:17:15.306Z,67.10
2022-12-17T01:19:36.056Z,67.10
2022-12-17T01:21:57.246Z,67.00
2022-12-17T01:24:17.448Z,66.70
2022-12-17T01:26:37.750Z,66.90
2022-12-17T01:28:58.463Z,67.00
2022-12-17T01:31:18.915Z,66.30
2022-12-17T01:33:39.682Z,66.80
2022-12-17T01:36:00.438Z,67.10
2022-12-17T01:38:22.225Z,66.80
2022-12-17T01:40:44.716Z,67.00
2022-12-17T01:43:05.994Z,67.00
2022-12-17T01:45:30.015Z,66.80
2022-12-17T01:47:53.788Z,66.80
2022-12-17T01:50:31.758Z,66.70
2022-12-17T01:52:52.679Z,66.20
2022-12-17T01:55:11.220Z,66.40
2022-12-17T01:57:46.607Z,66.30
2022-12-17T02:00:18.957Z,66.30
2022-12-17T02:02:39.854Z,66.60
2022-12-17T02:05:00.612Z,66.60
2022-12-17T02:07:38.954Z,66.50
2022-12-17T02:10:05.461Z,66.10
2022-12-17T02:12:36.066Z,66.10
2022-12-17T02:15:19.920Z,65.90
2022-12-17T02:17:43.863Z,66.00
2022-12-17T02:20:23.505Z,65.70
2022-12-17T02:22:48.744Z,65.30
2022-12-17T02:25:14.142Z,66.20
2022-12-17T02:27:36.377Z,66.20
2022-12-17T02:30:01.711Z,66.20
2022-12-17T02:32:24.968Z,66.20
2022-12-17T02:34:45.855Z,65.90
2022-12-17T02:37:06.987Z,65.50
2022-12-17T02:39:27.387Z,65.30
2022-12-17T02:42:01.710Z,65.00
2022-12-17T02:44:24.942Z,65.00
2022-12-17T02:46:45.983Z,64.80
2022-12-17T02:49:06.669Z,64.50
2022-12-17T02:51:27.456Z,64.70
2022-12-17T02:53:50.577Z,64.90
2022-12-17T02:56:11.147Z,64.50
2022-12-17T02:58:31.532Z,64.90
2022-12-17T03:00:53.446Z,64.90
2022-12-17T03:03:13.957Z,64.80
2022-12-17T03:05:49.830Z,64.60
2022-12-17T03:08:10.396Z,64.60
2022-12-17T03:10:35.965Z,64.40
2022-12-17T03:12:56.614Z,64.30
2022-12-17T03:15:16.912Z,64.20
2022-12-17T03:17:38.847Z,63.90
2022-12-17T03:19:59.287Z,64.00
2022-12-17T03:22:19.915Z,64.30
2022-12-17T03:24:40.280Z,64.20
2022-12-17T03:27:00.751Z,64.00
2022-12-17T03:29:21.026Z,64.00
2022-12-17T03:31:41.977Z,64.50
2022-12-17T03:34:04.346Z,63.70
2022-12-17T03:36:25.630Z,64.20
2022-12-17T03:38:46.270Z,64.70
2022-12-17T03:41:09.335Z,64.60
2022-12-17T03:43:30.664Z,64.60
2022-12-17T03:45:51.052Z,64.40
2022-12-17T03:48:21.301Z,64.70
2022-12-17T03:50:43.311Z,65.00
2022-12-17T03:53:05.443Z,65.80
2022-12-17T03:55:27.042Z,68.20
2022-12-17T03:57:47.339Z,71.00
2022-12-17T04:00:07.886Z,71.50
2022-12-17T04:02:42.980Z,71.70
2022-12-17T04:05:03.558Z,71.90
2022-12-17T04:07:25.473Z,71.50
2022-12-17T04:09:45.943Z,71.10
2022-12-17T04:12:17.729Z,70.60
2022-12-17T04:14:46.382Z,70.00
2022-12-17T04:17:06.901Z,69.30
2022-12-17T04:19:27.279Z,70.20
2022-12-17T04:21:47.729Z,69.30
2022-12-17T04:24:09.539Z,69.10
2022-12-17T04:26:30.241Z,69.20
2022-12-17T04:28:50.553Z,68.60
2022-12-17T04:31:11.167Z,68.40
2022-12-17T04:33:30.795Z,68.60
2022-12-17T04:35:51.464Z,68.50
2022-12-17T04:38:12.050Z,68.40
2022-12-17T04:40:34.323Z,68.60
2022-12-17T04:42:54.665Z,68.40
2022-12-17T04:45:15.215Z,68.10
2022-12-17T04:47:37.836Z,67.60
2022-12-17T04:49:57.997Z,67.20
2022-12-17T04:52:18.407Z,66.60
2022-12-17T04:54:38.852Z,66.40
2022-12-17T04:57:00.355Z,66.40
2022-12-17T04:59:20.625Z,65.50
2022-12-17T05:01:41.006Z,66.30
2022-12-17T05:04:01.887Z,66.40
2022-12-17T05:06:22.602Z,66.20
2022-12-17T05:08:46.399Z,66.30
2022-12-17T05:11:07.016Z,66.20
2022-12-17T05:13:29.237Z,66.00
2022-12-17T05:15:53.169Z,66.10
2022-12-17T05:18:22.113Z,65.70
2022-12-17T05:20:42.411Z,65.90
2022-12-17T05:23:02.628Z,65.80
2022-12-17T05:25:24.172Z,65.50
2022-12-17T05:27:44.310Z,65.10
2022-12-17T05:30:06.235Z,64.90
2022-12-17T05:32:26.611Z,65.20
2022-12-17T05:34:47.143Z,64.80
2022-12-17T05:37:07.767Z,65.10
2022-12-17T05:39:28.449Z,65.10
2022-12-17T05:41:48.897Z,65.00
2022-12-17T05:44:09.254Z,64.90
2022-12-17T05:46:31.150Z,64.60
2022-12-17T05:48:52.605Z,63.90
2022-12-17T05:51:12.855Z,64.40
2022-12-17T05:53:33.543Z,64.50
2022-12-17T05:55:54.340Z,64.60
2022-12-17T05:58:23.066Z,64.70
2022-12-17T06:00:43.349Z,64.40
2022-12-17T06:03:04.997Z,64.10
2022-12-17T06:05:26.978Z,64.20
2022-12-17T06:07:47.585Z,64.20
2022-12-17T06:10:07.811Z,64.30
2022-12-17T06:12:28.093Z,64.40
2022-12-17T06:14:48.803Z,64.20
2022-12-17T06:17:09.093Z,64.20
2022-12-17T06:19:30.833Z,64.00
2022-12-17T06:21:51.234Z,63.90
2022-12-17T06:24:11.926Z,63.50
2022-12-17T06:26:32.587Z,63.70
2022-12-17T06:28:53.347Z,64.00
2022-12-17T06:31:14.120Z,63.80
2022-12-17T06:33:37.191Z,64.40
2022-12-17T06:35:58.784Z,64.40
2022-12-17T06:38:19.823Z,64.20
2022-12-17T06:40:42.285Z,64.30
2022-12-17T06:43:11.797Z,64.10
2022-12-17T06:45:32.239Z,64.10
2022-12-17T06:47:52.555Z,63.80
2022-12-17T06:50:12.901Z,63.70
2022-12-17T06:52:34.987Z,64.00
2022-12-17T06:54:55.304Z,63.90
2022-12-17T06:57:15.657Z,63.80
2022-12-17T06:59:36.339Z,63.80
2022-12-17T07:01:56.787Z,63.90
2022-12-17T07:04:17.104Z,63.70
2022-12-17T07:06:37.600Z,63.70
2022-12-17T07:08:59.485Z,63.50
2022-12-17T07:11:20.886Z,63.60
2022-12-17T07:13:41.195Z,63.50
2022-12-17T07:16:01.932Z,63.40
2022-12-17T07:18:23.139Z,63.20
2022-12-17T07:20:43.496Z,63.30
2022-12-17T07:23:03.815Z,63.40
2022-12-17T07:25:26.484Z,62.80
2022-12-17T07:27:47.244Z,63.10
2022-12-17T07:30:07.738Z,63.60
2022-12-17T07:32:28.279Z,63.90
2022-12-17T07:34:48.860Z,63.90
2022-12-17T07:37:09.123Z,63.80
2022-12-17T07:39:29.652Z,63.70
2022-12-17T07:41:51.310Z,63.60
2022-12-17T07:44:14.342Z,63.60
2022-12-17T07:46:34.823Z,63.10
2022-12-17T07:48:55.293Z,63.20
2022-12-17T07:51:15.819Z,63.40
2022-12-17T07:53:36.558Z,63.50
2022-12-17T07:55:57.298Z,63.40
2022-12-17T07:58:21.823Z,63.50
2022-12-17T08:00:47.539Z,63.50
2022-12-17T08:03:15.794Z,63.60
2022-12-17T08:05:36.528Z,63.70
2022-12-17T08:07:59.908Z,63.30
2022-12-17T08:10:20.368Z,63.40
2022-12-17T08:12:40.673Z,63.70
2022-12-17T08:15:02.513Z,63.60
2022-12-17T08:17:23.042Z,63.70
2022-12-17T08:19:43.846Z,63.60
2022-12-17T08:22:04.633Z,63.60
2022-12-17T08:24:27.592Z,63.70
2022-12-17T08:26:48.554Z,63.60
2022-12-17T08:29:09.172Z,63.60
2022-12-17T08:31:30.790Z,63.50
2022-12-17T08:33:51.294Z,63.40
2022-12-17T08:36:12.991Z,63.70
2022-12-17T08:38:33.708Z,63.80
2022-12-17T08:40:54.119Z,63.80
2022-12-17T08:43:17.809Z,63.70
2022-12-17T08:45:38.387Z,63.70
2022-12-17T08:48:03.896Z,64.20
2022-12-17T08:50:40.559Z,64.40
2022-12-17T08:53:01.208Z,64.40
2022-12-17T08:55:24.357Z,64.20
2022-12-17T08:57:46.126Z,64.10
2022-12-17T09:00:07.318Z,64.10
2022-12-17T09:02:28.762Z,64.10
2022-12-17T09:04:50.892Z,64.10
2022-12-17T09:07:11.846Z,64.30
2022-12-17T09:09:32.126Z,64.20
2022-12-17T09:11:52.406Z,64.20
2022-12-17T09:14:12.784Z,64.60
2022-12-17T09:16:33.547Z,64.60
2022-12-17T09:18:54.449Z,64.60
2022-12-17T09:21:16.276Z,64.70
2022-12-17T09:23:39.603Z,64.90
2022-12-17T09:26:00.417Z,64.90
2022-12-17T09:28:21.538Z,64.90
2022-12-17T09:30:42.309Z,65.20
2022-12-17T09:33:02.854Z,65.20
2022-12-17T09:35:23.864Z,66.00
2022-12-17T09:37:45.511Z,65.50
2022-12-17T09:40:11.312Z,65.50
2022-12-17T09:42:38.624Z,65.50
2022-12-17T09:45:05.884Z,65.70
2022-12-17T09:47:36.347Z,65.50
2022-12-17T09:49:57.476Z,65.40
2022-12-17T09:52:17.984Z,65.30
2022-12-17T09:54:47.230Z,65.40
2022-12-17T09:57:09.141Z,65.10
2022-12-17T09:59:38.437Z,65.30
2022-12-17T10:01:59.089Z,65.40
2022-12-17T10:04:21.092Z,65.30
2022-12-17T10:06:46.185Z,65.20
2022-12-17T10:09:09.601Z,65.20
2022-12-17T10:11:38.686Z,65.90
2022-12-17T10:13:58.946Z,65.40
2022-12-17T10:16:22.215Z,65.40
2022-12-17T10:18:43.045Z,65.30
2022-12-17T10:21:10.759Z,65.40
2022-12-17T10:23:42.426Z,65.30
2022-12-17T10:26:09.546Z,65.30
2022-12-17T10:28:33.284Z,65.30
2022-12-17T10:30:54.658Z,65.30
2022-12-17T10:33:15.162Z,65.20
2022-12-17T10:35:38.050Z,65.00
2022-12-17T10:37:59.001Z,65.30
2022-12-17T10:40:21.807Z,66.00
2022-12-17T10:42:45.076Z,65.30
2022-12-17T10:45:06.941Z,65.10
2022-12-17T10:47:33.220Z,65.10
2022-12-17T10:49:53.475Z,65.30
2022-12-17T10:52:18.874Z,65.30
2022-12-17T10:54:48.709Z,65.40
2022-12-17T10:57:11.979Z,65.30
2022-12-17T10:59:48.531Z,65.50
2022-12-17T11:02:16.847Z,65.40
2022-12-17T11:04:43.491Z,65.20
2022-12-17T11:07:06.396Z,65.10
2022-12-17T11:09:35.169Z,64.90
2022-12-17T11:11:56.443Z,65.20
2022-12-17T11:14:21.771Z,65.30
2022-12-17T11:16:44.820Z,65.40
2022-12-17T11:19:11.841Z,65.40
2022-12-17T11:21:38.307Z,65.30
2022-12-17T11:24:05.451Z,65.00
2022-12-17T11:26:30.784Z,65.00
2022-12-17T11:28:54.187Z,65.10
2022-12-17T11:31:29.384Z,65.20
2022-12-17T11:33:56.770Z,65.10
2022-12-17T11:36:41.062Z,65.30
2022-12-17T11:39:09.923Z,65.40
2022-12-17T11:41:37.096Z,65.30
2022-12-17T11:44:05.167Z,65.40
2022-12-17T11:46:37.311Z,65.50
2022-12-17T11:49:04.812Z,65.40
2022-12-17T11:51:35.648Z,65.40
2022-12-17T11:54:06.599Z,65.30
2022-12-17T11:56:37.608Z,65.30
2022-12-17T11:59:12.195Z,65.20
2022-12-17T12:01:39.071Z,65.10
2022-12-17T12:04:12.123Z,65.20
2022-12-17T12:06:41.518Z,65.30
2022-12-17T12:09:11.884Z,65.50
2022-12-17T12:11:55.132Z,65.40
2022-12-17T12:14:26.436Z,65.40
2022-12-17T12:16:54.186Z,65.30
2022-12-17T12:19:23.379Z,65.40
2022-12-17T12:21:59.139Z,65.50
2022-12-17T12:24:29.418Z,65.50
2022-12-17T12:27:01.193Z,65.80
2022-12-17T12:29:34.825Z,65.70
2022-12-17T12:32:03.693Z,65.30
2022-12-17T12:34:30.621Z,65.60
2022-12-17T12:36:56.326Z,65.60
2022-12-17T12:39:18.033Z,65.60
2022-12-17T12:41:48.224Z,65.50
2022-12-17T12:44:13.924Z,65.60
2022-12-17T12:46:39.483Z,65.50
2022-12-17T12:49:06.651Z,65.50
2022-12-17T12:51:34.476Z,65.80
2022-12-17T12:53:57.247Z,65.80
2022-12-17T12:56:19.168Z,65.50
2022-12-17T12:58:44.972Z,65.60
2022-12-17T13:01:13.779Z,65.70
2022-12-17T13:03:47.955Z,65.60
2022-12-17T13:05:50.402Z,65.90
2022-12-17T13:08:03.617Z,65.70
2022-12-17T13:10:25.855Z,65.60
2022-12-17T13:12:34.178Z,65.60
2022-12-17T13:14:49.894Z,65.70
2022-12-17T13:16:58.983Z,65.70
2022-12-17T13:19:20.311Z,65.60
2022-12-17T13:21:29.659Z,65.50
2022-12-17T13:23:38.207Z,66.30
2022-12-17T13:25:42.946Z,65.50
2022-12-17T13:27:46.674Z,65.30
2022-12-17T13:29:49.630Z,65.40
2022-12-17T13:32:17.183Z,65.40
2022-12-17T13:34:28.897Z,65.70
2022-12-17T13:36:39.239Z,65.50
2022-12-17T13:38:53.420Z,65.60
2022-12-17T13:41:10.081Z,65.60
2022-12-17T13:43:24.094Z,65.70
2022-12-17T13:45:33.714Z,65.70
2022-12-17T13:47:38.359Z,65.30
2022-12-17T13:49:41.653Z,65.40
2022-12-17T13:51:45.155Z,65.10
2022-12-17T13:53:54.864Z,65.10
2022-12-17T13:56:01.268Z,65.20
2022-12-17T13:58:04.303Z,65.40
2022-12-17T14:00:08.580Z,65.10
2022-12-17T14:02:25.436Z,65.20
2022-12-17T14:04:30.885Z,65.10
2022-12-17T14:06:37.625Z,65.10
2022-12-17T14:08:44.442Z,64.90
2022-12-17T14:10:51.913Z,65.00
2022-12-17T14:13:05.863Z,65.10
2022-12-17T14:15:23.467Z,64.90
2022-12-17T14:17:28.017Z,65.00
2022-12-17T14:19:33.359Z,65.00
2022-12-17T14:21:39.959Z,65.00
2022-12-17T14:23:46.772Z,65.10
2022-12-17T14:25:51.193Z,65.30
2022-12-17T14:27:56.761Z,65.20
2022-12-17T14:30:02.026Z,65.40
2022-12-17T14:32:25.099Z,65.10
2022-12-17T14:34:31.255Z,65.20
2022-12-17T14:36:38.206Z,64.90
2022-12-17T14:38:50.656Z,65.20
2022-12-17T14:40:54.938Z,65.00
2022-12-17T14:42:59.949Z,65.50
2022-12-17T14:45:08.223Z,65.40
2022-12-17T14:47:18.230Z,65.60
2022-12-17T14:49:23.643Z,65.70
2022-12-17T14:51:32.582Z,64.80
2022-12-17T14:53:35.774Z,65.30
2022-12-17T14:55:40.287Z,65.70
2022-12-17T14:57:43.232Z,65.90
2022-12-17T14:59:46.316Z,65.80
2022-12-17T15:01:55.752Z,65.90
2022-12-17T15:03:59.558Z,65.80
2022-12-17T15:06:04.368Z,65.50
2022-12-17T15:08:07.753Z,65.20
2022-12-17T15:10:12.458Z,65.30
2022-12-17T15:12:15.451Z,65.30
2022-12-17T15:14:18.459Z,65.10
2022-12-17T15:16:21.695Z,65.10
2022-12-17T15:18:26.546Z,64.80
2022-12-17T15:20:29.587Z,64.90
2022-12-17T15:22:32.504Z,65.20
2022-12-17T15:24:35.487Z,66.20
2022-12-17T15:26:38.409Z,65.20
2022-12-17T15:28:43.480Z,65.40
2022-12-17T15:30:47.349Z,65.70
2022-12-17T15:32:50.397Z,65.80
2022-12-17T15:34:54.717Z,65.80
2022-12-17T15:36:57.640Z,65.50
2022-12-17T15:39:01.736Z,65.50
2022-12-17T15:41:26.197Z,65.50
2022-12-17T15:43:28.156Z,65.30
2022-12-17T15:45:32.477Z,64.80
2022-12-17T15:47:35.570Z,65.00
2022-12-17T15:49:38.873Z,64.90
2022-12-17T15:51:43.281Z,65.30
2022-12-17T15:53:47.684Z,65.10
2022-12-17T15:55:50.588Z,66.30
2022-12-17T15:57:53.519Z,66.20
2022-12-17T15:59:56.495Z,65.90
2022-12-17T16:01:59.639Z,65.80
2022-12-17T16:04:02.746Z,65.60
2022-12-17T16:06:05.936Z,65.50
2022-12-17T16:08:10.336Z,65.10
2022-12-17T16:10:14.808Z,64.70
2022-12-17T16:12:17.784Z,65.10
2022-12-17T16:14:20.907Z,66.10
2022-12-17T16:16:24.652Z,65.50
2022-12-17T16:18:27.788Z,65.50
2022-12-17T16:20:31.045Z,65.50
2022-12-17T16:22:37.510Z,65.20
2022-12-17T16:24:43.268Z,65.60
2022-12-17T16:26:46.567Z,65.50
2022-12-17T16:28:50.176Z,65.10
2022-12-17T16:31:01.162Z,64.30
2022-12-17T16:33:04.445Z,64.90
2022-12-17T16:35:10.528Z,65.30
2022-12-17T16:37:13.791Z,66.10
2022-12-17T16:39:18.524Z,66.70
2022-12-17T16:41:23.893Z,67.20
2022-12-17T16:43:28.406Z,67.10
2022-12-17T16:45:31.587Z,66.90
2022-12-17T16:47:35.127Z,67.10
2022-12-17T16:49:38.089Z,65.90
2022-12-17T16:51:41.577Z,66.10
2022-12-17T16:53:44.592Z,66.20
2022-12-17T16:55:50.128Z,66.20
2022-12-17T16:57:54.544Z,66.10
2022-12-17T16:59:57.614Z,65.70
2022-12-17T17:02:00.727Z,65.30
2022-12-17T17:04:05.572Z,64.90
2022-12-17T17:06:08.744Z,65.10
2022-12-17T17:08:11.616Z,65.10
2022-12-17T17:10:14.634Z,65.10
2022-12-17T17:12:17.672Z,65.00
2022-12-17T17:14:22.314Z,65.00
2022-12-17T17:16:26.366Z,65.40
2022-12-17T17:18:29.651Z,65.10
2022-12-17T17:20:33.009Z,65.20
2022-12-17T17:22:36.024Z,65.10
2022-12-17T17:24:39.037Z,65.00
2022-12-17T17:26:41.972Z,64.90
2022-12-17T17:28:47.014Z,64.90
2022-12-17T17:30:51.343Z,65.20
2022-12-17T17:32:57.798Z,65.50
2022-12-17T17:35:00.782Z,65.20
2022-12-17T17:37:03.912Z,65.10
2022-12-17T17:39:07.321Z,65.60
2022-12-17T17:41:12.371Z,65.50
2022-12-17T17:43:15.309Z,65.40
2022-12-17T17:45:18.312Z,65.00
2022-12-17T17:47:22.680Z,65.00
2022-12-17T17:49:25.595Z,65.00
2022-12-17T17:52:07.159Z,65.00
2022-12-17T17:53:55.087Z,65.20
2022-12-17T17:56:03.969Z,65.20
2022-12-17T17:58:06.890Z,65.20
2022-12-17T18:00:11.454Z,64.80
2022-12-17T18:02:14.794Z,65.00
2022-12-17T18:04:24.266Z,64.80
2022-12-17T18:06:27.830Z,65.10
2022-12-17T18:08:31.480Z,65.30
2022-12-17T18:10:34.720Z,64.80
2022-12-17T18:12:55.300Z,65.00
2022-12-17T18:15:13.772Z,64.70
2022-12-17T18:17:17.775Z,64.60
2022-12-17T18:19:23.275Z,64.80
2022-12-17T18:21:27.825Z,64.80
2022-12-17T18:23:30.901Z,64.50
2022-12-17T18:25:37.679Z,64.60
2022-12-17T18:27:41.263Z,65.20
2022-12-17T18:29:44.388Z,65.60
2022-12-17T18:31:51.666Z,65.70
2022-12-17T18:33:58.393Z,65.60
2022-12-17T18:36:03.002Z,65.50
2022-12-17T18:38:05.906Z,65.50
2022-12-17T18:40:09.932Z,65.50
2022-12-17T18:42:30.121Z,65.50
2022-12-17T18:44:36.362Z,65.40
2022-12-17T18:46:39.966Z,65.50
2022-12-17T18:48:42.976Z,65.60
2022-12-17T18:50:45.930Z,65.60
2022-12-17T18:52:50.293Z,65.70
2022-12-17T18:54:53.225Z,66.10
2022-12-17T18:57:01.937Z,66.40
2022-12-17T18:59:06.245Z,66.20
2022-12-17T19:01:18.685Z,65.70
2022-12-17T19:03:21.920Z,66.00
2022-12-17T19:05:24.859Z,65.90
2022-12-17T19:07:27.831Z,65.50
2022-12-17T19:09:35.640Z,65.60
2022-12-17T19:11:43.397Z,65.70
2022-12-17T19:13:47.510Z,66.10
2022-12-17T19:15:50.395Z,65.40
2022-12-17T19:17:53.366Z,64.60
2022-12-17T19:19:56.321Z,64.60
2022-12-17T19:22:00.174Z,64.70
2022-12-17T19:24:05.635Z,64.60
2022-12-17T19:26:11.731Z,64.40
2022-12-17T19:28:14.682Z,64.30
2022-12-17T19:30:17.811Z,64.10
2022-12-17T19:32:20.725Z,64.00
2022-12-17T19:34:23.721Z,63.80
2022-12-17T19:36:28.866Z,63.80
2022-12-17T19:38:32.165Z,63.60
2022-12-17T19:40:36.015Z,63.70
2022-12-17T19:42:40.235Z,63.50
2022-12-17T19:44:43.222Z,63.30
2022-12-17T19:46:47.912Z,63.30
2022-12-17T19:48:52.491Z,63.20
2022-12-17T19:50:57.074Z,63.50
2022-12-17T19:53:00.032Z,63.50
2022-12-17T19:55:03.891Z,63.50
2022-12-17T19:57:06.924Z,63.70
2022-12-17T19:59:14.037Z,63.50
2022-12-17T20:01:19.486Z,63.10
2022-12-17T20:03:22.671Z,63.20
2022-12-17T20:05:25.615Z,63.20
2022-12-17T20:07:28.598Z,63.10
2022-12-17T20:09:31.667Z,63.20
2022-12-17T20:11:35.667Z,63.00
2022-12-17T20:13:39.029Z,63.00
2022-12-17T20:15:43.301Z,62.50
2022-12-17T20:17:46.193Z,62.90
2022-12-17T20:19:52.280Z,63.10
2022-12-17T20:21:55.855Z,63.30
2022-12-17T20:23:58.997Z,63.20
2022-12-17T20:26:06.067Z,63.30
2022-12-17T20:28:08.993Z,63.50
2022-12-17T20:30:12.619Z,63.30
2022-12-17T20:32:19.552Z,63.50
2022-12-17T20:34:25.179Z,63.70
2022-12-17T20:36:28.958Z,64.20
2022-12-17T20:38:32.012Z,64.50
2022-12-17T20:40:35.314Z,64.20
2022-12-17T20:42:38.529Z,64.00
2022-12-17T20:44:41.798Z,63.60
2022-12-17T20:46:44.802Z,63.60
2022-12-17T20:48:49.693Z,63.60
2022-12-17T20:50:52.800Z,63.70
2022-12-17T20:52:55.760Z,63.60
2022-12-17T20:55:01.010Z,63.60
2022-12-17T20:57:03.950Z,63.40
2022-12-17T20:59:08.795Z,63.10
2022-12-17T21:01:14.228Z,63.20
2022-12-17T21:03:17.474Z,63.70
2022-12-17T21:05:21.911Z,64.30
2022-12-17T21:07:24.824Z,64.60
2022-12-17T21:09:27.776Z,64.50
2022-12-17T21:11:32.481Z,64.60
2022-12-17T21:13:36.157Z,64.70
2022-12-17T21:15:39.334Z,64.30
2022-12-17T21:17:42.342Z,64.10
2022-12-17T21:19:45.344Z,63.80
2022-12-17T21:21:49.737Z,64.20
2022-12-17T21:23:53.984Z,64.20
2022-12-17T21:26:01.564Z,64.00
2022-12-17T21:28:05.769Z,64.10
2022-12-17T21:30:11.524Z,63.90
2022-12-17T21:32:16.591Z,63.80
2022-12-17T21:34:22.737Z,63.50
2022-12-17T21:36:26.882Z,63.40
2022-12-17T21:38:33.487Z,63.20
2022-12-17T21:40:36.918Z,63.10
2022-12-17T21:42:57.261Z,63.20
2022-12-17T21:45:00.632Z,63.00
2022-12-17T21:47:03.824Z,62.80
2022-12-17T21:49:06.786Z,62.90
2022-12-17T21:51:12.726Z,62.60
2022-12-17T21:53:16.455Z,62.70
2022-12-17T21:55:21.416Z,62.50
2022-12-17T21:57:24.413Z,62.20
2022-12-17T21:59:27.484Z,62.20
2022-12-17T22:01:32.683Z,62.00
2022-12-17T22:03:35.718Z,62.10
2022-12-17T22:05:39.036Z,61.90
2022-12-17T22:07:44.091Z,62.30
2022-12-17T22:10:21.394Z,62.50
2022-12-17T22:12:39.234Z,62.60
2022-12-17T22:14:43.427Z,62.40
2022-12-17T22:16:49.136Z,62.50
2022-12-17T22:18:53.170Z,62.40
2022-12-17T22:21:00.044Z,62.00
2022-12-17T22:23:04.710Z,62.10
2022-12-17T22:25:10.331Z,62.30
2022-12-17T22:27:17.079Z,62.50
2022-12-17T22:29:33.937Z,62.60
2022-12-17T22:31:54.491Z,62.60
2022-12-17T22:35:14.951Z,63.00
2022-12-17T22:38:50.915Z,62.60
2022-12-17T22:42:35.438Z,62.50
2022-12-17T22:44:09.775Z,62.70
2022-12-17T22:44:45.005Z,61.80
2022-12-17T22:46:00.335Z,62.10
2022-12-17T22:48:03.816Z,62.20
2022-12-17T22:50:07.672Z,61.90
2022-12-17T22:52:11.580Z,61.90
2022-12-17T22:54:15.370Z,61.80
2022-12-17T22:56:31.956Z,61.80
2022-12-17T22:58:43.540Z,62.90
2022-12-17T23:00:46.659Z,62.10
2022-12-17T23:02:52.249Z,62.10
2022-12-17T23:04:55.328Z,62.30
2022-12-17T23:06:58.372Z,61.60
2022-12-17T23:09:01.370Z,61.80
2022-12-17T23:11:08.012Z,62.10
2022-12-17T23:13:11.027Z,63.10
2022-12-17T23:15:15.308Z,62.20
2022-12-17T23:17:18.184Z,61.80
2022-12-17T23:19:21.059Z,61.80
2022-12-17T23:21:26.220Z,61.80
2022-12-17T23:23:29.161Z,61.80
2022-12-17T23:25:32.568Z,61.90
2022-12-17T23:27:35.641Z,61.90
2022-12-17T23:29:38.554Z,61.70
2022-12-17T23:31:42.934Z,61.50
2022-12-17T23:33:46.383Z,61.20
2022-12-17T23:35:49.342Z,61.20
2022-12-17T23:37:52.404Z,61.10
2022-12-17T23:39:55.348Z,61.10
2022-12-17T23:41:58.342Z,61.10
2022-12-17T23:44:01.583Z,61.60
2022-12-17T23:46:05.090Z,62.10
2022-12-17T23:48:09.739Z,61.90
2022-12-17T23:50:13.601Z,61.50
2022-12-17T23:52:16.655Z,61.20
2022-12-17T23:54:19.664Z,61.40
2022-12-17T23:56:24.582Z,61.20
2022-12-17T23:58:27.798Z,61.60
